createdAt,value
2022-08-30T00:03:58.390Z,1.70
2022-08-30T00:09:00.330Z,2.10
2022-08-30T00:14:01.893Z,1.90
2022-08-30T00:19:04.000Z,2.05
2022-08-30T00:24:05.898Z,2.20
2022-08-30T00:29:07.392Z,1.83
2022-08-30T00:34:08.951Z,1.92
2022-08-30T00:39:10.712Z,1.85
2022-08-30T00:44:12.286Z,1.77
2022-08-30T00:49:14.490Z,1.70
2022-08-30T00:54:17.408Z,2.08
2022-08-30T00:59:19.879Z,2.20
2022-08-30T01:04:24.612Z,1.75
2022-08-30T01:09:26.853Z,1.95
2022-08-30T01:14:28.428Z,1.73
2022-08-30T01:19:46.255Z,1.90
2022-08-30T01:24:49.083Z,1.80
2022-08-30T01:29:51.466Z,1.88
2022-08-30T01:34:52.937Z,2.00
2022-08-30T01:39:55.956Z,2.22
2022-08-30T01:44:57.626Z,1.60
2022-08-30T01:49:59.356Z,2.60
2022-08-30T01:55:01.932Z,2.42
2022-08-30T02:00:08.681Z,2.15
2022-08-30T02:05:13.411Z,2.40
2022-08-30T02:10:15.063Z,2.28
2022-08-30T02:15:17.130Z,2.20
2022-08-30T02:20:19.060Z,2.40
2022-08-30T02:25:21.328Z,1.95
2022-08-30T02:30:23.080Z,2.35
2022-08-30T02:35:25.132Z,2.38
2022-08-30T02:40:26.752Z,2.30
2022-08-30T02:45:28.709Z,2.25
2022-08-30T02:50:31.170Z,2.17
2022-08-30T02:55:32.947Z,2.45
2022-08-30T03:00:35.069Z,2.00
2022-08-30T03:05:37.922Z,2.10
2022-08-30T03:10:41.579Z,2.08
2022-08-30T03:15:43.188Z,2.20
2022-08-30T03:20:48.351Z,2.47
2022-08-30T03:25:57.343Z,2.08
2022-08-30T03:30:59.060Z,2.25
2022-08-30T03:36:00.633Z,2.47
2022-08-30T03:41:02.134Z,2.40
2022-08-30T03:46:04.904Z,2.10
2022-08-30T03:51:06.780Z,2.42
2022-08-30T03:56:08.367Z,2.33
2022-08-30T04:01:10.193Z,2.42
2022-08-30T04:06:12.316Z,2.15
2022-08-30T04:11:17.005Z,2.13
2022-08-30T04:16:21.867Z,2.20
2022-08-30T04:21:23.752Z,2.20
2022-08-30T04:26:27.671Z,2.45
2022-08-30T04:31:31.376Z,2.00
2022-08-30T04:36:33.398Z,2.67
2022-08-30T04:41:36.828Z,2.15
2022-08-30T04:46:44.757Z,2.30
2022-08-30T04:51:46.663Z,2.28
2022-08-30T04:56:48.222Z,2.10
2022-08-30T05:01:50.013Z,2.58
2022-08-30T05:06:52.945Z,2.70
2022-08-30T05:11:54.946Z,2.72
2022-08-30T05:16:56.789Z,2.30
2022-08-30T05:21:58.494Z,2.30
2022-08-30T05:27:00.187Z,2.20
2022-08-30T05:32:01.889Z,2.30
2022-08-30T05:37:03.804Z,2.58
2022-08-30T05:42:05.677Z,2.22
2022-08-30T05:47:07.352Z,2.53
2022-08-30T05:52:09.097Z,2.38
2022-08-30T05:57:11.199Z,2.60
2022-08-30T06:02:12.891Z,2.53
2022-08-30T06:07:15.842Z,2.67
2022-08-30T06:12:18.807Z,2.40
2022-08-30T06:17:20.508Z,2.50
2022-08-30T06:22:22.005Z,2.17
2022-08-30T06:27:23.837Z,2.67
2022-08-30T06:32:25.424Z,2.63
2022-08-30T06:37:29.440Z,2.72
2022-08-30T06:42:33.281Z,2.70
2022-08-30T06:47:34.765Z,3.47
2022-08-30T06:52:36.389Z,3.00
2022-08-30T06:57:38.156Z,2.80
2022-08-30T07:02:40.500Z,2.40
2022-08-30T07:07:42.126Z,2.67
2022-08-30T07:12:43.760Z,2.45
2022-08-30T07:18:03.728Z,2.70
2022-08-30T07:23:05.393Z,3.33
2022-08-30T07:28:08.358Z,2.40
2022-08-30T07:33:10.309Z,2.40
2022-08-30T07:38:15.001Z,2.60
2022-08-30T07:43:16.695Z,2.30
2022-08-30T07:48:18.477Z,2.85
2022-08-30T07:53:20.247Z,2.30
2022-08-30T07:58:21.861Z,2.55
2022-08-30T08:03:23.424Z,2.45
2022-08-30T08:08:25.109Z,2.33
2022-08-30T08:13:28.011Z,2.10
2022-08-30T08:18:34.104Z,2.53
2022-08-30T08:23:35.701Z,2.38
2022-08-30T08:28:37.504Z,3.33
2022-08-30T08:33:39.068Z,2.63
2022-08-30T08:38:40.740Z,2.30
2022-08-30T08:43:42.392Z,2.65
2022-08-30T08:49:01.145Z,2.95
2022-08-30T08:54:08.639Z,2.57
2022-08-30T08:59:11.690Z,2.20
2022-08-30T09:04:24.633Z,2.22
2022-08-30T09:09:31.426Z,2.05
2022-08-30T09:14:46.074Z,2.22
2022-08-30T09:19:56.838Z,2.03
2022-08-30T09:25:08.925Z,1.70
2022-08-30T09:30:21.377Z,2.00
2022-08-30T09:35:24.693Z,2.40
2022-08-30T09:40:51.081Z,1.80
2022-08-30T09:45:58.702Z,2.15
2022-08-30T09:51:15.332Z,1.77
2022-08-30T09:56:20.823Z,1.90
2022-08-30T10:01:29.545Z,1.67
2022-08-30T10:06:37.437Z,1.80
2022-08-30T10:11:42.112Z,1.60
2022-08-30T10:16:57.930Z,1.65
2022-08-30T10:22:03.530Z,1.95
2022-08-30T10:27:32.192Z,1.77
2022-08-30T10:32:45.694Z,1.42
2022-08-30T10:38:01.894Z,1.58
2022-08-30T10:43:13.478Z,1.58
2022-08-30T10:48:27.920Z,1.75
2022-08-30T10:53:40.771Z,1.40
2022-08-30T10:58:43.282Z,1.35
2022-08-30T11:04:26.256Z,1.90
2022-08-30T11:09:32.441Z,1.52
2022-08-30T11:14:43.969Z,1.60
2022-08-30T11:19:45.877Z,1.10
2022-08-30T11:25:11.732Z,1.95
2022-08-30T11:30:27.067Z,1.52
2022-08-30T11:35:55.092Z,1.55
2022-08-30T11:40:56.750Z,1.92
2022-08-30T11:46:19.366Z,1.48
2022-08-30T11:51:23.974Z,1.30
2022-08-30T11:56:49.561Z,1.75
2022-08-30T12:01:52.241Z,1.27
2022-08-30T12:06:53.905Z,1.38
2022-08-30T12:11:58.449Z,1.70
2022-08-30T12:17:20.763Z,1.45
2022-08-30T12:22:23.867Z,1.40
2022-08-30T12:27:33.226Z,1.50
2022-08-30T12:32:45.173Z,1.50
2022-08-30T12:38:00.172Z,1.20
2022-08-30T12:43:05.899Z,1.70
2022-08-30T12:48:15.864Z,1.73
2022-08-30T12:53:45.680Z,1.60
2022-08-30T13:04:11.163Z,1.67
2022-08-30T13:09:33.870Z,1.50
2022-08-30T13:14:42.331Z,1.70
2022-08-30T13:20:05.605Z,1.70
2022-08-30T13:25:10.005Z,1.48
2022-08-30T13:30:16.103Z,1.65
2022-08-30T13:35:17.621Z,1.60
2022-08-30T13:40:21.384Z,2.00
2022-08-30T13:50:44.732Z,1.85
2022-08-30T13:55:46.249Z,1.40
2022-08-30T14:00:50.267Z,1.40
2022-08-30T14:06:29.337Z,1.40
2022-08-30T14:11:22.338Z,1.60
2022-08-30T14:16:27.626Z,1.40
2022-08-30T14:21:29.635Z,1.58
2022-08-30T14:26:35.749Z,1.42
2022-08-30T14:31:41.514Z,1.67
2022-08-30T14:36:45.251Z,1.60
2022-08-30T14:41:49.714Z,1.50
2022-08-30T14:46:52.161Z,1.70
2022-08-30T14:51:54.945Z,1.70
2022-08-30T14:56:57.585Z,1.70
2022-08-30T15:01:59.231Z,1.33
2022-08-30T15:07:00.915Z,1.38
2022-08-30T15:12:04.050Z,1.83
2022-08-30T15:17:06.387Z,1.65
2022-08-30T15:22:09.055Z,1.60
2022-08-30T15:27:11.317Z,1.52
2022-08-30T15:32:12.833Z,1.65
2022-08-30T15:37:22.129Z,1.40
2022-08-30T15:42:23.657Z,1.73
2022-08-30T15:47:25.189Z,1.60
2022-08-30T15:52:27.134Z,1.63
2022-08-30T15:57:28.813Z,1.55
2022-08-30T16:02:30.614Z,1.83
2022-08-30T16:07:32.273Z,1.40
2022-08-30T16:12:33.886Z,1.73
2022-08-30T16:17:36.218Z,1.75
2022-08-30T16:22:40.793Z,1.48
2022-08-30T16:27:47.544Z,1.58
2022-08-30T16:32:49.341Z,1.60
2022-08-30T16:37:50.938Z,2.00
2022-08-30T16:42:52.508Z,1.63
2022-08-30T16:47:53.970Z,1.73
2022-08-30T16:52:55.680Z,1.20
2022-08-30T16:57:57.915Z,2.13
2022-08-30T17:03:00.639Z,1.83
2022-08-30T17:08:03.509Z,1.10
2022-08-30T17:13:05.425Z,1.83
2022-08-30T17:18:06.976Z,1.30
2022-08-30T17:23:08.821Z,1.30
2022-08-30T17:28:11.015Z,1.60
2022-08-30T17:33:14.955Z,1.23
2022-08-30T17:38:19.754Z,1.25
2022-08-30T17:43:21.681Z,1.38
2022-08-30T17:48:23.357Z,1.50
2022-08-30T17:53:25.105Z,1.25
2022-08-30T17:58:26.843Z,1.15
2022-08-30T18:03:28.948Z,1.20
2022-08-30T18:08:30.635Z,1.48
2022-08-30T18:13:32.938Z,1.38
2022-08-30T18:18:36.732Z,1.27
2022-08-30T18:23:38.233Z,1.67
2022-08-30T18:28:41.542Z,1.30
2022-08-30T18:33:43.641Z,1.10
2022-08-30T18:38:45.292Z,1.38
2022-08-30T18:43:47.416Z,1.30
2022-08-30T18:48:49.506Z,1.10
2022-08-30T18:53:54.260Z,1.10
2022-08-30T18:58:56.011Z,1.27
2022-08-30T19:03:58.213Z,1.42
2022-08-30T19:09:00.243Z,1.30
2022-08-30T19:14:03.021Z,1.42
2022-08-30T19:19:04.912Z,1.27
2022-08-30T19:24:06.775Z,1.50
2022-08-30T19:29:09.774Z,0.98
2022-08-30T19:34:12.445Z,1.40
2022-08-30T19:39:14.364Z,0.90
2022-08-30T19:44:16.425Z,1.30
2022-08-30T19:49:19.459Z,0.90
2022-08-30T19:54:23.701Z,1.20
2022-08-30T19:59:25.641Z,1.10
2022-08-30T20:04:27.885Z,1.00
2022-08-30T20:09:29.416Z,1.48
2022-08-30T20:14:31.133Z,1.33
2022-08-30T20:19:33.553Z,1.20
2022-08-30T20:29:43.049Z,1.48
2022-08-30T20:34:44.569Z,1.33
2022-08-30T20:39:46.805Z,1.20
2022-08-30T20:44:48.312Z,1.15
2022-08-30T20:49:49.857Z,1.33
2022-08-30T20:54:54.752Z,1.35
2022-08-30T20:59:59.009Z,1.20
2022-08-30T21:05:03.494Z,1.42
2022-08-30T21:10:05.637Z,1.20
2022-08-30T21:15:20.992Z,1.38
2022-08-30T21:20:29.677Z,1.05
2022-08-30T21:25:33.180Z,1.40
2022-08-30T21:30:36.455Z,1.40
2022-08-30T21:35:56.823Z,1.23
2022-08-30T21:40:58.669Z,1.17
2022-08-30T21:46:08.447Z,1.00
2022-08-30T21:51:12.153Z,1.58
2022-08-30T21:56:21.433Z,1.20
2022-08-30T22:01:26.192Z,1.40
2022-08-30T22:06:30.913Z,1.45
2022-08-30T22:11:34.272Z,1.02
2022-08-30T22:16:36.947Z,1.52
2022-08-30T22:21:41.751Z,1.15
2022-08-30T22:26:43.825Z,1.30
2022-08-30T22:31:45.346Z,1.25
2022-08-30T22:36:46.973Z,1.10
2022-08-30T22:41:48.534Z,1.38
2022-08-30T22:46:50.054Z,1.10
2022-08-30T22:51:51.598Z,1.42
2022-08-30T22:56:53.263Z,1.52
2022-08-30T23:01:54.860Z,1.38
2022-08-30T23:06:56.409Z,1.55
2022-08-30T23:11:57.981Z,1.58
2022-08-30T23:17:00.358Z,1.38
2022-08-30T23:22:01.977Z,1.25
2022-08-30T23:27:22.430Z,1.33
2022-08-30T23:32:42.755Z,1.45
2022-08-30T23:38:03.240Z,1.20
2022-08-30T23:43:23.399Z,1.50
2022-08-30T23:48:50.859Z,1.20
2022-08-30T23:54:12.444Z,1.10
2022-08-30T23:59:32.531Z,1.20
